Crystola, Colorado
Current Conditions -  °F | °C
As of 12:58 PM on Saturday 20 Dec 2014 (Local Time) from KAFF Reporting Station
Clear Clear  
Wind Chill: 48°   Ceiling: Unl
Heat Index: 50°   Visibility: 10mi
Dew Point: 14°   Wind: 5mph
Humidity: 24%   Direction: NA
Pressure: 29.94"   Gusts: NA
Location:  39.0237°N, 105.099°W
Report Text: KAFF 201958Z AUTO VRB04KT 10SM CLR 10/M10 A2994 RMK AO2 SLP151 T00991100
Loading
Personal Weather Stations






























Interactive Weather Map New forecast layout! Learn more

10-Day Weather Forecast

Advertisements
Track Severe Weather on mobile